sensor_id;sensor_type;location;lat;lon;timestamp;P1;durP1;ratioP1;P2;durP2;ratioP2
10100;SDS011;5090;51.258;4.436;2023-11-22T00:02:15;27.30;;;16.60;;
10100;SDS011;5090;51.258;4.436;2023-11-22T00:04:43;29.00;;;17.27;;
10100;SDS011;5090;51.258;4.436;2023-11-22T00:07:12;33.33;;;16.67;;
10100;SDS011;5090;51.258;4.436;2023-11-22T00:09:40;26.90;;;16.00;;
10100;SDS011;5090;51.258;4.436;2023-11-22T00:12:08;26.23;;;17.33;;
10100;SDS011;5090;51.258;4.436;2023-11-22T00:14:36;26.07;;;16.37;;
10100;SDS011;5090;51.258;4.436;2023-11-22T00:17:04;26.53;;;16.87;;
10100;SDS011;5090;51.258;4.436;2023-11-22T00:19:32;25.20;;;16.57;;
10100;SDS011;5090;51.258;4.436;2023-11-22T00:22:01;26.10;;;17.63;;
10100;SDS011;5090;51.258;4.436;2023-11-22T00:24:33;25.87;;;16.33;;
10100;SDS011;5090;51.258;4.436;2023-11-22T00:27:01;26.80;;;16.80;;
10100;SDS011;5090;51.258;4.436;2023-11-22T00:29:29;26.17;;;16.50;;
10100;SDS011;5090;51.258;4.436;2023-11-22T00:31:57;26.23;;;16.60;;
10100;SDS011;5090;51.258;4.436;2023-11-22T00:34:26;28.53;;;16.83;;
10100;SDS011;5090;51.258;4.436;2023-11-22T00:36:54;29.77;;;17.90;;
10100;SDS011;5090;51.258;4.436;2023-11-22T00:39:23;28.07;;;18.27;;
10100;SDS011;5090;51.258;4.436;2023-11-22T00:41:51;27.17;;;17.13;;
10100;SDS011;5090;51.258;4.436;2023-11-22T00:44:19;29.53;;;18.17;;
10100;SDS011;5090;51.258;4.436;2023-11-22T00:46:47;26.77;;;15.90;;
10100;SDS011;5090;51.258;4.436;2023-11-22T00:49:15;32.13;;;17.00;;
10100;SDS011;5090;51.258;4.436;2023-11-22T00:51:44;26.47;;;17.20;;
10100;SDS011;5090;51.258;4.436;2023-11-22T00:54:12;25.87;;;16.27;;
10100;SDS011;5090;51.258;4.436;2023-11-22T00:56:40;29.47;;;16.73;;
10100;SDS011;5090;51.258;4.436;2023-11-22T00:59:08;27.73;;;17.00;;
10100;SDS011;5090;51.258;4.436;2023-11-22T01:01:36;26.23;;;16.73;;
10100;SDS011;5090;51.258;4.436;2023-11-22T01:04:05;30.17;;;16.93;;
10100;SDS011;5090;51.258;4.436;2023-11-22T01:06:33;25.63;;;16.63;;
10100;SDS011;5090;51.258;4.436;2023-11-22T01:09:01;26.37;;;16.17;;
10100;SDS011;5090;51.258;4.436;2023-11-22T01:11:29;32.03;;;17.67;;
10100;SDS011;5090;51.258;4.436;2023-11-22T01:13:58;26.27;;;15.80;;
10100;SDS011;5090;51.258;4.436;2023-11-22T01:16:26;28.60;;;17.00;;
10100;SDS011;5090;51.258;4.436;2023-11-22T01:18:54;28.50;;;17.57;;
10100;SDS011;5090;51.258;4.436;2023-11-22T01:21:22;26.20;;;16.67;;
10100;SDS011;5090;51.258;4.436;2023-11-22T01:23:50;28.27;;;16.93;;
10100;SDS011;5090;51.258;4.436;2023-11-22T01:26:19;26.50;;;16.53;;
10100;SDS011;5090;51.258;4.436;2023-11-22T01:28:47;30.43;;;16.37;;
10100;SDS011;5090;51.258;4.436;2023-11-22T01:31:15;26.27;;;16.40;;
10100;SDS011;5090;51.258;4.436;2023-11-22T01:33:43;28.50;;;17.07;;
10100;SDS011;5090;51.258;4.436;2023-11-22T01:36:11;28.90;;;17.17;;
10100;SDS011;5090;51.258;4.436;2023-11-22T01:38:40;29.97;;;16.93;;
10100;SDS011;5090;51.258;4.436;2023-11-22T01:41:08;25.67;;;15.97;;
10100;SDS011;5090;51.258;4.436;2023-11-22T01:43:36;27.60;;;16.07;;
10100;SDS011;5090;51.258;4.436;2023-11-22T01:46:04;27.63;;;16.17;;
10100;SDS011;5090;51.258;4.436;2023-11-22T01:48:32;30.27;;;16.20;;
10100;SDS011;5090;51.258;4.436;2023-11-22T01:51:01;27.67;;;16.67;;
10100;SDS011;5090;51.258;4.436;2023-11-22T01:53:29;27.27;;;16.50;;
10100;SDS011;5090;51.258;4.436;2023-11-22T01:55:57;30.60;;;17.67;;
10100;SDS011;5090;51.258;4.436;2023-11-22T01:58:25;32.83;;;17.97;;
10100;SDS011;5090;51.258;4.436;2023-11-22T02:00:53;29.07;;;17.53;;
10100;SDS011;5090;51.258;4.436;2023-11-22T02:03:22;30.60;;;17.63;;
10100;SDS011;5090;51.258;4.436;2023-11-22T02:05:50;29.00;;;16.43;;
10100;SDS011;5090;51.258;4.436;2023-11-22T02:08:18;24.17;;;15.87;;
10100;SDS011;5090;51.258;4.436;2023-11-22T02:10:56;26.07;;;17.27;;
10100;SDS011;5090;51.258;4.436;2023-11-22T02:13:14;26.70;;;16.83;;
10100;SDS011;5090;51.258;4.436;2023-11-22T02:15:43;27.33;;;17.33;;
10100;SDS011;5090;51.258;4.436;2023-11-22T02:18:11;29.07;;;16.93;;
10100;SDS011;5090;51.258;4.436;2023-11-22T02:20:39;28.30;;;17.27;;
10100;SDS011;5090;51.258;4.436;2023-11-22T02:23:08;25.43;;;16.33;;
10100;SDS011;5090;51.258;4.436;2023-11-22T02:25:35;30.83;;;16.80;;
10100;SDS011;5090;51.258;4.436;2023-11-22T02:28:04;28.00;;;16.10;;
10100;SDS011;5090;51.258;4.436;2023-11-22T02:30:32;26.57;;;16.13;;
10100;SDS011;5090;51.258;4.436;2023-11-22T02:33:00;29.67;;;16.23;;
10100;SDS011;5090;51.258;4.436;2023-11-22T02:35:28;29.23;;;16.80;;
10100;SDS011;5090;51.258;4.436;2023-11-22T02:37:57;28.80;;;16.37;;
10100;SDS011;5090;51.258;4.436;2023-11-22T02:40:25;28.53;;;17.23;;
10100;SDS011;5090;51.258;4.436;2023-11-22T02:42:53;32.10;;;17.00;;
10100;SDS011;5090;51.258;4.436;2023-11-22T02:45:25;23.70;;;16.40;;
10100;SDS011;5090;51.258;4.436;2023-11-22T02:47:51;26.43;;;16.13;;
10100;SDS011;5090;51.258;4.436;2023-11-22T02:50:19;29.40;;;17.17;;
10100;SDS011;5090;51.258;4.436;2023-11-22T02:52:47;32.47;;;17.73;;
10100;SDS011;5090;51.258;4.436;2023-11-22T02:55:15;27.93;;;17.97;;
10100;SDS011;5090;51.258;4.436;2023-11-22T02:57:43;28.47;;;17.30;;
10100;SDS011;5090;51.258;4.436;2023-11-22T03:00:12;27.47;;;16.13;;
10100;SDS011;5090;51.258;4.436;2023-11-22T03:02:41;30.57;;;17.00;;
10100;SDS011;5090;51.258;4.436;2023-11-22T03:05:09;23.47;;;15.70;;
10100;SDS011;5090;51.258;4.436;2023-11-22T03:07:38;30.57;;;17.47;;
10100;SDS011;5090;51.258;4.436;2023-11-22T03:10:06;27.30;;;17.47;;
10100;SDS011;5090;51.258;4.436;2023-11-22T03:12:35;24.33;;;15.50;;
10100;SDS011;5090;51.258;4.436;2023-11-22T03:15:03;29.67;;;16.73;;
10100;SDS011;5090;51.258;4.436;2023-11-22T03:17:31;26.73;;;15.13;;
10100;SDS011;5090;51.258;4.436;2023-11-22T03:19:59;27.30;;;16.17;;
10100;SDS011;5090;51.258;4.436;2023-11-22T03:22:27;33.20;;;17.03;;
10100;SDS011;5090;51.258;4.436;2023-11-22T03:24:56;28.73;;;17.00;;
10100;SDS011;5090;51.258;4.436;2023-11-22T03:27:24;25.80;;;15.17;;
10100;SDS011;5090;51.258;4.436;2023-11-22T03:29:53;28.20;;;17.30;;
10100;SDS011;5090;51.258;4.436;2023-11-22T03:32:21;28.43;;;16.57;;
10100;SDS011;5090;51.258;4.436;2023-11-22T03:34:49;26.40;;;17.20;;
10100;SDS011;5090;51.258;4.436;2023-11-22T03:37:17;25.93;;;16.07;;
10100;SDS011;5090;51.258;4.436;2023-11-22T03:39:45;30.20;;;17.43;;
10100;SDS011;5090;51.258;4.436;2023-11-22T03:42:15;27.83;;;16.40;;
10100;SDS011;5090;51.258;4.436;2023-11-22T03:44:43;30.83;;;16.33;;
10100;SDS011;5090;51.258;4.436;2023-11-22T03:47:11;29.47;;;16.97;;
10100;SDS011;5090;51.258;4.436;2023-11-22T03:49:40;28.70;;;17.63;;
10100;SDS011;5090;51.258;4.436;2023-11-22T03:52:09;32.10;;;17.53;;
10100;SDS011;5090;51.258;4.436;2023-11-22T03:54:36;32.20;;;17.33;;
10100;SDS011;5090;51.258;4.436;2023-11-22T03:57:04;29.53;;;17.90;;
10100;SDS011;5090;51.258;4.436;2023-11-22T03:59:34;29.13;;;16.37;;
10100;SDS011;5090;51.258;4.436;2023-11-22T04:02:01;29.43;;;17.33;;
10100;SDS011;5090;51.258;4.436;2023-11-22T04:04:29;29.10;;;15.60;;
10100;SDS011;5090;51.258;4.436;2023-11-22T04:06:57;27.90;;;16.07;;
10100;SDS011;5090;51.258;4.436;2023-11-22T04:09:25;31.27;;;16.57;;
10100;SDS011;5090;51.258;4.436;2023-11-22T04:11:53;26.77;;;15.93;;
10100;SDS011;5090;51.258;4.436;2023-11-22T04:14:21;31.20;;;17.80;;
10100;SDS011;5090;51.258;4.436;2023-11-22T04:16:50;28.60;;;18.30;;
10100;SDS011;5090;51.258;4.436;2023-11-22T04:19:18;34.90;;;18.03;;
10100;SDS011;5090;51.258;4.436;2023-11-22T04:21:46;34.67;;;17.87;;
10100;SDS011;5090;51.258;4.436;2023-11-22T04:24:14;30.57;;;17.73;;
10100;SDS011;5090;51.258;4.436;2023-11-22T04:26:43;34.57;;;17.77;;
10100;SDS011;5090;51.258;4.436;2023-11-22T04:29:11;33.13;;;17.67;;
10100;SDS011;5090;51.258;4.436;2023-11-22T04:31:39;36.40;;;18.50;;
10100;SDS011;5090;51.258;4.436;2023-11-22T04:34:07;28.57;;;17.90;;
10100;SDS011;5090;51.258;4.436;2023-11-22T04:36:35;35.10;;;17.53;;
10100;SDS011;5090;51.258;4.436;2023-11-22T04:39:04;38.93;;;19.20;;
10100;SDS011;5090;51.258;4.436;2023-11-22T04:41:32;33.53;;;19.37;;
10100;SDS011;5090;51.258;4.436;2023-11-22T04:44:00;36.50;;;20.20;;
10100;SDS011;5090;51.258;4.436;2023-11-22T04:46:29;36.57;;;19.63;;
10100;SDS011;5090;51.258;4.436;2023-11-22T04:48:58;36.43;;;19.40;;
10100;SDS011;5090;51.258;4.436;2023-11-22T04:51:25;35.37;;;19.10;;
10100;SDS011;5090;51.258;4.436;2023-11-22T04:53:53;36.17;;;18.93;;
10100;SDS011;5090;51.258;4.436;2023-11-22T04:56:22;33.50;;;18.27;;
10100;SDS011;5090;51.258;4.436;2023-11-22T04:58:50;35.77;;;19.00;;
10100;SDS011;5090;51.258;4.436;2023-11-22T05:01:18;32.03;;;18.60;;
10100;SDS011;5090;51.258;4.436;2023-11-22T05:03:46;32.30;;;18.40;;
10100;SDS011;5090;51.258;4.436;2023-11-22T05:06:14;33.83;;;17.93;;
10100;SDS011;5090;51.258;4.436;2023-11-22T05:08:42;34.97;;;18.77;;
10100;SDS011;5090;51.258;4.436;2023-11-22T05:11:12;34.03;;;18.23;;
10100;SDS011;5090;51.258;4.436;2023-11-22T05:13:40;33.23;;;18.70;;
10100;SDS011;5090;51.258;4.436;2023-11-22T05:16:08;35.77;;;18.57;;
10100;SDS011;5090;51.258;4.436;2023-11-22T05:18:36;37.23;;;19.50;;
10100;SDS011;5090;51.258;4.436;2023-11-22T05:21:04;35.93;;;19.53;;
10100;SDS011;5090;51.258;4.436;2023-11-22T05:23:32;31.83;;;18.87;;
10100;SDS011;5090;51.258;4.436;2023-11-22T05:26:01;30.60;;;18.27;;
10100;SDS011;5090;51.258;4.436;2023-11-22T05:28:29;36.03;;;19.90;;
10100;SDS011;5090;51.258;4.436;2023-11-22T05:30:57;34.47;;;19.30;;
10100;SDS011;5090;51.258;4.436;2023-11-22T05:33:25;36.27;;;18.97;;
10100;SDS011;5090;51.258;4.436;2023-11-22T05:35:53;30.37;;;17.97;;
10100;SDS011;5090;51.258;4.436;2023-11-22T05:38:22;32.97;;;18.57;;
10100;SDS011;5090;51.258;4.436;2023-11-22T05:40:50;33.10;;;18.90;;
10100;SDS011;5090;51.258;4.436;2023-11-22T05:43:18;36.83;;;19.17;;
10100;SDS011;5090;51.258;4.436;2023-11-22T05:45:46;34.07;;;19.50;;
10100;SDS011;5090;51.258;4.436;2023-11-22T05:48:14;34.60;;;18.77;;
10100;SDS011;5090;51.258;4.436;2023-11-22T05:50:43;34.97;;;19.37;;
10100;SDS011;5090;51.258;4.436;2023-11-22T05:53:11;33.67;;;19.23;;
10100;SDS011;5090;51.258;4.436;2023-11-22T05:55:39;34.20;;;18.53;;
10100;SDS011;5090;51.258;4.436;2023-11-22T05:58:07;33.47;;;18.77;;
10100;SDS011;5090;51.258;4.436;2023-11-22T06:00:35;38.40;;;20.00;;
10100;SDS011;5090;51.258;4.436;2023-11-22T06:03:04;35.63;;;19.07;;
10100;SDS011;5090;51.258;4.436;2023-11-22T06:05:32;34.43;;;19.57;;
10100;SDS011;5090;51.258;4.436;2023-11-22T06:08:00;35.00;;;18.23;;
10100;SDS011;5090;51.258;4.436;2023-11-22T06:10:28;34.87;;;20.03;;
10100;SDS011;5090;51.258;4.436;2023-11-22T06:12:56;31.90;;;19.30;;
10100;SDS011;5090;51.258;4.436;2023-11-22T06:15:25;35.97;;;20.83;;
10100;SDS011;5090;51.258;4.436;2023-11-22T06:17:54;36.63;;;19.27;;
10100;SDS011;5090;51.258;4.436;2023-11-22T06:20:22;35.70;;;20.73;;
10100;SDS011;5090;51.258;4.436;2023-11-22T06:22:50;38.47;;;19.77;;
10100;SDS011;5090;51.258;4.436;2023-11-22T06:25:18;32.63;;;19.23;;
10100;SDS011;5090;51.258;4.436;2023-11-22T06:27:47;33.73;;;19.50;;
10100;SDS011;5090;51.258;4.436;2023-11-22T06:30:15;36.17;;;19.80;;
10100;SDS011;5090;51.258;4.436;2023-11-22T06:32:43;32.50;;;18.67;;
10100;SDS011;5090;51.258;4.436;2023-11-22T06:35:11;34.73;;;18.97;;
10100;SDS011;5090;51.258;4.436;2023-11-22T06:37:40;35.80;;;20.57;;
10100;SDS011;5090;51.258;4.436;2023-11-22T06:40:09;32.10;;;20.47;;
10100;SDS011;5090;51.258;4.436;2023-11-22T06:42:38;37.70;;;21.13;;
10100;SDS011;5090;51.258;4.436;2023-11-22T06:45:06;35.27;;;19.40;;
10100;SDS011;5090;51.258;4.436;2023-11-22T06:47:34;33.87;;;20.00;;
10100;SDS011;5090;51.258;4.436;2023-11-22T06:50:03;37.33;;;19.23;;
10100;SDS011;5090;51.258;4.436;2023-11-22T06:52:32;34.37;;;19.70;;
10100;SDS011;5090;51.258;4.436;2023-11-22T06:55:00;37.03;;;20.63;;
10100;SDS011;5090;51.258;4.436;2023-11-22T06:57:28;38.10;;;21.07;;
10100;SDS011;5090;51.258;4.436;2023-11-22T06:59:56;33.37;;;19.93;;
10100;SDS011;5090;51.258;4.436;2023-11-22T07:02:24;36.20;;;20.50;;
10100;SDS011;5090;51.258;4.436;2023-11-22T07:04:53;33.63;;;19.67;;
10100;SDS011;5090;51.258;4.436;2023-11-22T07:07:21;36.80;;;20.07;;
10100;SDS011;5090;51.258;4.436;2023-11-22T07:09:49;32.50;;;18.40;;
10100;SDS011;5090;51.258;4.436;2023-11-22T07:12:17;39.33;;;19.93;;
10100;SDS011;5090;51.258;4.436;2023-11-22T07:14:45;32.70;;;19.73;;
10100;SDS011;5090;51.258;4.436;2023-11-22T07:17:14;38.00;;;20.40;;
10100;SDS011;5090;51.258;4.436;2023-11-22T07:19:42;38.93;;;20.03;;
10100;SDS011;5090;51.258;4.436;2023-11-22T07:22:10;34.30;;;18.90;;
10100;SDS011;5090;51.258;4.436;2023-11-22T07:24:38;37.33;;;21.70;;
10100;SDS011;5090;51.258;4.436;2023-11-22T07:27:06;40.87;;;23.37;;
10100;SDS011;5090;51.258;4.436;2023-11-22T07:29:35;39.77;;;22.90;;
10100;SDS011;5090;51.258;4.436;2023-11-22T07:32:03;39.30;;;22.20;;
10100;SDS011;5090;51.258;4.436;2023-11-22T07:34:31;37.83;;;22.67;;
10100;SDS011;5090;51.258;4.436;2023-11-22T07:37:00;39.93;;;22.23;;
10100;SDS011;5090;51.258;4.436;2023-11-22T07:39:28;38.27;;;22.20;;
10100;SDS011;5090;51.258;4.436;2023-11-22T07:41:56;39.67;;;21.63;;
10100;SDS011;5090;51.258;4.436;2023-11-22T07:44:24;39.63;;;23.00;;
10100;SDS011;5090;51.258;4.436;2023-11-22T07:46:52;40.93;;;23.10;;
10100;SDS011;5090;51.258;4.436;2023-11-22T07:49:21;41.57;;;22.63;;
10100;SDS011;5090;51.258;4.436;2023-11-22T07:51:49;44.67;;;23.93;;
10100;SDS011;5090;51.258;4.436;2023-11-22T07:54:19;42.40;;;22.40;;
10100;SDS011;5090;51.258;4.436;2023-11-22T07:56:48;39.30;;;21.77;;
10100;SDS011;5090;51.258;4.436;2023-11-22T07:59:15;47.17;;;23.97;;
10100;SDS011;5090;51.258;4.436;2023-11-22T08:01:44;42.13;;;24.33;;
10100;SDS011;5090;51.258;4.436;2023-11-22T08:04:12;42.73;;;22.80;;
10100;SDS011;5090;51.258;4.436;2023-11-22T08:06:40;51.03;;;24.97;;
10100;SDS011;5090;51.258;4.436;2023-11-22T08:09:08;48.30;;;25.33;;
10100;SDS011;5090;51.258;4.436;2023-11-22T08:11:36;56.43;;;27.37;;
10100;SDS011;5090;51.258;4.436;2023-11-22T08:14:05;61.90;;;28.07;;
10100;SDS011;5090;51.258;4.436;2023-11-22T08:16:33;53.67;;;26.60;;
10100;SDS011;5090;51.258;4.436;2023-11-22T08:19:01;65.07;;;29.70;;
10100;SDS011;5090;51.258;4.436;2023-11-22T08:21:29;63.63;;;30.13;;
10100;SDS011;5090;51.258;4.436;2023-11-22T08:23:58;59.53;;;29.20;;
10100;SDS011;5090;51.258;4.436;2023-11-22T08:26:26;61.60;;;30.10;;
10100;SDS011;5090;51.258;4.436;2023-11-22T08:28:55;58.53;;;30.20;;
10100;SDS011;5090;51.258;4.436;2023-11-22T08:31:23;54.83;;;29.20;;
10100;SDS011;5090;51.258;4.436;2023-11-22T08:33:51;65.97;;;30.10;;
10100;SDS011;5090;51.258;4.436;2023-11-22T08:36:19;62.80;;;30.10;;
10100;SDS011;5090;51.258;4.436;2023-11-22T08:38:48;58.57;;;30.93;;
10100;SDS011;5090;51.258;4.436;2023-11-22T08:41:16;60.20;;;30.17;;
10100;SDS011;5090;51.258;4.436;2023-11-22T08:43:44;63.00;;;29.93;;
10100;SDS011;5090;51.258;4.436;2023-11-22T08:46:12;54.60;;;28.27;;
10100;SDS011;5090;51.258;4.436;2023-11-22T08:48:41;51.70;;;25.10;;
10100;SDS011;5090;51.258;4.436;2023-11-22T08:51:09;47.47;;;25.10;;
10100;SDS011;5090;51.258;4.436;2023-11-22T08:53:38;51.10;;;25.90;;
10100;SDS011;5090;51.258;4.436;2023-11-22T08:56:06;50.90;;;27.13;;
10100;SDS011;5090;51.258;4.436;2023-11-22T08:58:35;49.50;;;26.30;;
10100;SDS011;5090;51.258;4.436;2023-11-22T09:01:03;50.57;;;26.83;;
10100;SDS011;5090;51.258;4.436;2023-11-22T09:03:31;47.43;;;26.63;;
10100;SDS011;5090;51.258;4.436;2023-11-22T09:05:59;59.60;;;28.33;;
10100;SDS011;5090;51.258;4.436;2023-11-22T09:08:28;59.77;;;28.63;;
10100;SDS011;5090;51.258;4.436;2023-11-22T09:10:56;50.83;;;26.73;;
10100;SDS011;5090;51.258;4.436;2023-11-22T09:13:24;56.67;;;26.20;;
10100;SDS011;5090;51.258;4.436;2023-11-22T09:15:52;54.17;;;26.67;;
10100;SDS011;5090;51.258;4.436;2023-11-22T09:18:21;48.33;;;27.60;;
10100;SDS011;5090;51.258;4.436;2023-11-22T09:20:49;55.17;;;28.83;;
10100;SDS011;5090;51.258;4.436;2023-11-22T09:23:17;52.70;;;27.93;;
10100;SDS011;5090;51.258;4.436;2023-11-22T09:25:45;52.87;;;27.47;;
10100;SDS011;5090;51.258;4.436;2023-11-22T09:28:14;52.13;;;27.27;;
10100;SDS011;5090;51.258;4.436;2023-11-22T09:30:42;50.87;;;26.93;;
10100;SDS011;5090;51.258;4.436;2023-11-22T09:33:12;49.67;;;26.03;;
10100;SDS011;5090;51.258;4.436;2023-11-22T09:35:39;53.30;;;27.33;;
10100;SDS011;5090;51.258;4.436;2023-11-22T09:38:07;48.00;;;25.50;;
10100;SDS011;5090;51.258;4.436;2023-11-22T09:40:44;51.50;;;26.97;;
10100;SDS011;5090;51.258;4.436;2023-11-22T09:43:12;58.80;;;29.07;;
10100;SDS011;5090;51.258;4.436;2023-11-22T09:45:40;54.53;;;29.33;;
10100;SDS011;5090;51.258;4.436;2023-11-22T09:48:15;53.70;;;26.77;;
10100;SDS011;5090;51.258;4.436;2023-11-22T09:53:31;50.63;;;28.13;;
10100;SDS011;5090;51.258;4.436;2023-11-22T09:56:00;53.00;;;28.77;;
10100;SDS011;5090;51.258;4.436;2023-11-22T09:58:28;45.67;;;26.43;;
10100;SDS011;5090;51.258;4.436;2023-11-22T10:00:55;50.00;;;27.00;;
10100;SDS011;5090;51.258;4.436;2023-11-22T10:03:23;55.33;;;26.73;;
10100;SDS011;5090;51.258;4.436;2023-11-22T10:05:51;51.40;;;28.60;;
10100;SDS011;5090;51.258;4.436;2023-11-22T10:08:20;47.17;;;26.67;;
10100;SDS011;5090;51.258;4.436;2023-11-22T10:10:48;56.17;;;28.60;;
10100;SDS011;5090;51.258;4.436;2023-11-22T10:13:16;48.97;;;28.20;;
10100;SDS011;5090;51.258;4.436;2023-11-22T10:15:44;51.70;;;27.83;;
10100;SDS011;5090;51.258;4.436;2023-11-22T10:18:12;47.37;;;26.37;;
10100;SDS011;5090;51.258;4.436;2023-11-22T10:20:41;48.33;;;27.63;;
10100;SDS011;5090;51.258;4.436;2023-11-22T10:23:10;50.83;;;27.23;;
10100;SDS011;5090;51.258;4.436;2023-11-22T10:25:45;48.67;;;26.23;;
10100;SDS011;5090;51.258;4.436;2023-11-22T10:28:13;49.93;;;28.13;;
10100;SDS011;5090;51.258;4.436;2023-11-22T10:30:41;52.20;;;29.00;;
10100;SDS011;5090;51.258;4.436;2023-11-22T10:33:10;52.43;;;28.67;;
10100;SDS011;5090;51.258;4.436;2023-11-22T10:35:45;52.27;;;28.63;;
10100;SDS011;5090;51.258;4.436;2023-11-22T10:38:14;56.50;;;30.00;;
10100;SDS011;5090;51.258;4.436;2023-11-22T10:40:41;57.03;;;30.10;;
10100;SDS011;5090;51.258;4.436;2023-11-22T10:43:11;57.27;;;27.93;;
10100;SDS011;5090;51.258;4.436;2023-11-22T10:45:39;52.17;;;28.03;;
10100;SDS011;5090;51.258;4.436;2023-11-22T10:48:07;51.40;;;28.40;;
10100;SDS011;5090;51.258;4.436;2023-11-22T10:50:36;52.07;;;27.80;;
10100;SDS011;5090;51.258;4.436;2023-11-22T10:53:05;52.53;;;28.93;;
10100;SDS011;5090;51.258;4.436;2023-11-22T10:55:33;48.07;;;27.33;;
10100;SDS011;5090;51.258;4.436;2023-11-22T10:58:02;49.80;;;27.63;;
10100;SDS011;5090;51.258;4.436;2023-11-22T11:00:31;47.33;;;27.43;;
10100;SDS011;5090;51.258;4.436;2023-11-22T11:02:59;49.27;;;27.00;;
10100;SDS011;5090;51.258;4.436;2023-11-22T11:05:27;43.90;;;26.27;;
10100;SDS011;5090;51.258;4.436;2023-11-22T11:08:04;46.87;;;25.53;;
10100;SDS011;5090;51.258;4.436;2023-11-22T11:10:29;44.53;;;24.30;;
10100;SDS011;5090;51.258;4.436;2023-11-22T11:12:57;44.10;;;26.13;;
10100;SDS011;5090;51.258;4.436;2023-11-22T11:15:25;41.80;;;25.13;;
10100;SDS011;5090;51.258;4.436;2023-11-22T11:17:54;36.23;;;23.87;;
10100;SDS011;5090;51.258;4.436;2023-11-22T11:20:22;39.20;;;23.43;;
10100;SDS011;5090;51.258;4.436;2023-11-22T11:22:50;38.03;;;23.47;;
10100;SDS011;5090;51.258;4.436;2023-11-22T11:25:18;42.07;;;24.17;;
10100;SDS011;5090;51.258;4.436;2023-11-22T11:30:55;46.33;;;24.20;;
10100;SDS011;5090;51.258;4.436;2023-11-22T11:33:06;35.70;;;21.50;;
10100;SDS011;5090;51.258;4.436;2023-11-22T11:35:46;37.97;;;21.60;;
10100;SDS011;5090;51.258;4.436;2023-11-22T11:38:14;37.37;;;20.07;;
10100;SDS011;5090;51.258;4.436;2023-11-22T11:40:42;35.27;;;20.83;;
10100;SDS011;5090;51.258;4.436;2023-11-22T11:43:10;40.47;;;22.23;;
10100;SDS011;5090;51.258;4.436;2023-11-22T11:45:39;35.30;;;22.60;;
10100;SDS011;5090;51.258;4.436;2023-11-22T11:48:07;38.97;;;22.80;;
10100;SDS011;5090;51.258;4.436;2023-11-22T11:50:35;41.00;;;24.17;;
10100;SDS011;5090;51.258;4.436;2023-11-22T11:53:03;48.13;;;25.33;;
10100;SDS011;5090;51.258;4.436;2023-11-22T11:55:31;48.70;;;25.63;;
10100;SDS011;5090;51.258;4.436;2023-11-22T11:58:06;48.33;;;25.27;;
10100;SDS011;5090;51.258;4.436;2023-11-22T12:00:36;50.67;;;27.13;;
10100;SDS011;5090;51.258;4.436;2023-11-22T12:03:04;53.97;;;28.10;;
10100;SDS011;5090;51.258;4.436;2023-11-22T12:05:32;53.80;;;27.53;;
10100;SDS011;5090;51.258;4.436;2023-11-22T12:08:00;57.80;;;29.77;;
10100;SDS011;5090;51.258;4.436;2023-11-22T12:10:28;56.07;;;29.50;;
10100;SDS011;5090;51.258;4.436;2023-11-22T12:12:57;62.97;;;28.53;;
10100;SDS011;5090;51.258;4.436;2023-11-22T12:15:25;57.13;;;29.37;;
10100;SDS011;5090;51.258;4.436;2023-11-22T12:17:53;51.97;;;27.57;;
10100;SDS011;5090;51.258;4.436;2023-11-22T12:20:22;60.17;;;31.00;;
10100;SDS011;5090;51.258;4.436;2023-11-22T12:22:51;49.80;;;28.60;;
10100;SDS011;5090;51.258;4.436;2023-11-22T12:25:19;50.80;;;28.93;;
10100;SDS011;5090;51.258;4.436;2023-11-22T12:27:47;51.57;;;27.93;;
10100;SDS011;5090;51.258;4.436;2023-11-22T12:32:49;50.10;;;27.97;;
10100;SDS011;5090;51.258;4.436;2023-11-22T12:35:17;53.93;;;28.20;;
10100;SDS011;5090;51.258;4.436;2023-11-22T12:37:46;53.20;;;28.80;;
10100;SDS011;5090;51.258;4.436;2023-11-22T12:40:14;50.60;;;28.00;;
10100;SDS011;5090;51.258;4.436;2023-11-22T12:42:47;50.73;;;28.47;;
10100;SDS011;5090;51.258;4.436;2023-11-22T12:45:18;42.70;;;26.00;;
10100;SDS011;5090;51.258;4.436;2023-11-22T12:47:45;41.77;;;25.53;;
10100;SDS011;5090;51.258;4.436;2023-11-22T12:52:48;44.17;;;25.53;;
10100;SDS011;5090;51.258;4.436;2023-11-22T12:55:16;40.63;;;24.93;;
10100;SDS011;5090;51.258;4.436;2023-11-22T12:57:55;44.37;;;24.27;;
10100;SDS011;5090;51.258;4.436;2023-11-22T13:00:13;47.10;;;24.73;;
10100;SDS011;5090;51.258;4.436;2023-11-22T13:02:41;40.77;;;25.73;;
10100;SDS011;5090;51.258;4.436;2023-11-22T13:05:09;40.93;;;24.50;;
10100;SDS011;5090;51.258;4.436;2023-11-22T13:07:37;42.90;;;25.23;;
10100;SDS011;5090;51.258;4.436;2023-11-22T13:10:06;45.10;;;23.93;;
10100;SDS011;5090;51.258;4.436;2023-11-22T13:12:34;36.30;;;23.93;;
10100;SDS011;5090;51.258;4.436;2023-11-22T13:15:02;46.47;;;26.23;;
10100;SDS011;5090;51.258;4.436;2023-11-22T13:17:30;47.50;;;28.40;;
10100;SDS011;5090;51.258;4.436;2023-11-22T13:19:59;48.27;;;28.80;;
10100;SDS011;5090;51.258;4.436;2023-11-22T13:22:27;52.07;;;29.67;;
10100;SDS011;5090;51.258;4.436;2023-11-22T13:24:55;48.80;;;29.57;;
10100;SDS011;5090;51.258;4.436;2023-11-22T13:27:23;52.83;;;27.87;;
10100;SDS011;5090;51.258;4.436;2023-11-22T13:29:52;49.07;;;26.97;;
10100;SDS011;5090;51.258;4.436;2023-11-22T13:32:20;44.50;;;26.07;;
10100;SDS011;5090;51.258;4.436;2023-11-22T13:34:48;45.10;;;27.07;;
10100;SDS011;5090;51.258;4.436;2023-11-22T13:37:16;46.40;;;26.87;;
10100;SDS011;5090;51.258;4.436;2023-11-22T13:39:44;46.53;;;27.33;;
10100;SDS011;5090;51.258;4.436;2023-11-22T13:42:13;48.50;;;28.20;;
10100;SDS011;5090;51.258;4.436;2023-11-22T13:44:41;48.37;;;29.47;;
10100;SDS011;5090;51.258;4.436;2023-11-22T13:47:09;50.13;;;30.07;;
10100;SDS011;5090;51.258;4.436;2023-11-22T13:49:37;48.03;;;28.80;;
10100;SDS011;5090;51.258;4.436;2023-11-22T13:52:05;44.63;;;27.53;;
10100;SDS011;5090;51.258;4.436;2023-11-22T13:54:34;46.27;;;24.23;;
10100;SDS011;5090;51.258;4.436;2023-11-22T13:57:02;42.13;;;23.07;;
10100;SDS011;5090;51.258;4.436;2023-11-22T13:59:31;38.20;;;22.70;;
10100;SDS011;5090;51.258;4.436;2023-11-22T14:01:59;37.43;;;22.70;;
10100;SDS011;5090;51.258;4.436;2023-11-22T14:04:27;37.50;;;22.77;;
10100;SDS011;5090;51.258;4.436;2023-11-22T14:06:55;32.13;;;21.37;;
10100;SDS011;5090;51.258;4.436;2023-11-22T14:09:23;39.67;;;22.17;;
10100;SDS011;5090;51.258;4.436;2023-11-22T14:11:52;34.07;;;22.53;;
10100;SDS011;5090;51.258;4.436;2023-11-22T14:14:21;36.10;;;22.73;;
10100;SDS011;5090;51.258;4.436;2023-11-22T14:16:49;36.40;;;21.90;;
10100;SDS011;5090;51.258;4.436;2023-11-22T14:19:17;33.17;;;22.40;;
10100;SDS011;5090;51.258;4.436;2023-11-22T14:21:45;34.50;;;22.67;;
10100;SDS011;5090;51.258;4.436;2023-11-22T14:24:13;30.23;;;21.37;;
10100;SDS011;5090;51.258;4.436;2023-11-22T14:26:42;35.77;;;22.23;;
10100;SDS011;5090;51.258;4.436;2023-11-22T14:29:10;35.67;;;22.40;;
10100;SDS011;5090;51.258;4.436;2023-11-22T14:31:38;36.20;;;21.03;;
10100;SDS011;5090;51.258;4.436;2023-11-22T14:34:06;35.33;;;20.73;;
10100;SDS011;5090;51.258;4.436;2023-11-22T14:36:34;35.43;;;21.40;;
10100;SDS011;5090;51.258;4.436;2023-11-22T14:39:03;42.43;;;21.83;;
10100;SDS011;5090;51.258;4.436;2023-11-22T14:41:31;36.67;;;21.40;;
10100;SDS011;5090;51.258;4.436;2023-11-22T14:43:59;34.27;;;20.30;;
10100;SDS011;5090;51.258;4.436;2023-11-22T14:46:27;32.60;;;20.60;;
10100;SDS011;5090;51.258;4.436;2023-11-22T14:48:56;30.13;;;20.03;;
10100;SDS011;5090;51.258;4.436;2023-11-22T14:51:24;38.33;;;20.63;;